sensor_id;sensor_type;location;lat;lon;timestamp;P1;durP1;ratioP1;P2;durP2;ratioP2
23288;SDS011;11813;50.834;4.280;2023-03-03T00:00:44;34.53;;;17.47;;
23288;SDS011;11813;50.834;4.280;2023-03-03T00:03:10;31.20;;;16.50;;
23288;SDS011;11813;50.834;4.280;2023-03-03T00:05:39;33.67;;;16.47;;
23288;SDS011;11813;50.834;4.280;2023-03-03T00:08:06;35.37;;;17.87;;
23288;SDS011;11813;50.834;4.280;2023-03-03T00:10:33;35.17;;;17.10;;
23288;SDS011;11813;50.834;4.280;2023-03-03T00:12:58;33.60;;;16.03;;
23288;SDS011;11813;50.834;4.280;2023-03-03T00:15:24;28.40;;;15.77;;
23288;SDS011;11813;50.834;4.280;2023-03-03T00:17:51;32.73;;;16.50;;
23288;SDS011;11813;50.834;4.280;2023-03-03T00:22:54;33.33;;;16.40;;
23288;SDS011;11813;50.834;4.280;2023-03-03T00:27:53;32.30;;;15.90;;
23288;SDS011;11813;50.834;4.280;2023-03-03T00:30:23;29.77;;;16.30;;
23288;SDS011;11813;50.834;4.280;2023-03-03T00:32:51;29.77;;;16.73;;
23288;SDS011;11813;50.834;4.280;2023-03-03T00:37:55;30.47;;;16.33;;
23288;SDS011;11813;50.834;4.280;2023-03-03T00:40:26;30.30;;;17.03;;
23288;SDS011;11813;50.834;4.280;2023-03-03T00:42:59;33.20;;;17.87;;
23288;SDS011;11813;50.834;4.280;2023-03-03T00:45:39;30.80;;;15.57;;
23288;SDS011;11813;50.834;4.280;2023-03-03T00:48:18;31.50;;;15.23;;
23288;SDS011;11813;50.834;4.280;2023-03-03T00:51:10;31.50;;;16.60;;
23288;SDS011;11813;50.834;4.280;2023-03-03T00:53:44;30.80;;;15.80;;
23288;SDS011;11813;50.834;4.280;2023-03-03T00:56:09;31.00;;;15.67;;
23288;SDS011;11813;50.834;4.280;2023-03-03T00:58:35;34.17;;;15.97;;
23288;SDS011;11813;50.834;4.280;2023-03-03T01:01:02;30.00;;;16.63;;
23288;SDS011;11813;50.834;4.280;2023-03-03T01:03:27;32.07;;;16.77;;
23288;SDS011;11813;50.834;4.280;2023-03-03T01:05:53;29.73;;;15.00;;
23288;SDS011;11813;50.834;4.280;2023-03-03T01:08:19;31.50;;;15.90;;
23288;SDS011;11813;50.834;4.280;2023-03-03T01:10:53;31.53;;;15.40;;
23288;SDS011;11813;50.834;4.280;2023-03-03T01:13:21;30.17;;;15.30;;
23288;SDS011;11813;50.834;4.280;2023-03-03T01:15:50;29.53;;;15.43;;
23288;SDS011;11813;50.834;4.280;2023-03-03T01:18:16;29.33;;;16.53;;
23288;SDS011;11813;50.834;4.280;2023-03-03T01:20:41;31.60;;;16.03;;
23288;SDS011;11813;50.834;4.280;2023-03-03T01:23:07;30.20;;;16.03;;
23288;SDS011;11813;50.834;4.280;2023-03-03T01:25:33;31.40;;;16.20;;
23288;SDS011;11813;50.834;4.280;2023-03-03T01:27:59;35.77;;;17.10;;
23288;SDS011;11813;50.834;4.280;2023-03-03T01:30:24;33.63;;;16.77;;
23288;SDS011;11813;50.834;4.280;2023-03-03T01:32:50;32.07;;;15.73;;
23288;SDS011;11813;50.834;4.280;2023-03-03T01:35:16;28.73;;;15.30;;
23288;SDS011;11813;50.834;4.280;2023-03-03T01:37:42;31.53;;;16.93;;
23288;SDS011;11813;50.834;4.280;2023-03-03T01:40:12;35.00;;;16.90;;
23288;SDS011;11813;50.834;4.280;2023-03-03T01:42:43;30.97;;;16.17;;
23288;SDS011;11813;50.834;4.280;2023-03-03T01:45:19;35.30;;;17.33;;
23288;SDS011;11813;50.834;4.280;2023-03-03T01:48:08;32.83;;;17.07;;
23288;SDS011;11813;50.834;4.280;2023-03-03T01:50:36;32.10;;;16.80;;
23288;SDS011;11813;50.834;4.280;2023-03-03T01:53:18;36.37;;;18.50;;
23288;SDS011;11813;50.834;4.280;2023-03-03T01:55:47;35.03;;;17.70;;
23288;SDS011;11813;50.834;4.280;2023-03-03T01:58:51;29.10;;;16.80;;
23288;SDS011;11813;50.834;4.280;2023-03-03T02:01:19;31.57;;;17.33;;
23288;SDS011;11813;50.834;4.280;2023-03-03T02:03:50;31.10;;;17.10;;
23288;SDS011;11813;50.834;4.280;2023-03-03T02:06:18;32.70;;;17.37;;
23288;SDS011;11813;50.834;4.280;2023-03-03T02:11:15;33.13;;;17.77;;
23288;SDS011;11813;50.834;4.280;2023-03-03T02:13:40;37.33;;;17.90;;
23288;SDS011;11813;50.834;4.280;2023-03-03T02:16:06;31.77;;;17.27;;
23288;SDS011;11813;50.834;4.280;2023-03-03T02:18:32;34.33;;;18.20;;
23288;SDS011;11813;50.834;4.280;2023-03-03T02:23:37;38.63;;;18.03;;
23288;SDS011;11813;50.834;4.280;2023-03-03T02:28:31;36.33;;;17.40;;
23288;SDS011;11813;50.834;4.280;2023-03-03T02:30:58;37.33;;;17.93;;
23288;SDS011;11813;50.834;4.280;2023-03-03T02:33:24;40.57;;;20.30;;
23288;SDS011;11813;50.834;4.280;2023-03-03T02:35:51;36.33;;;19.10;;
23288;SDS011;11813;50.834;4.280;2023-03-03T02:43:41;43.87;;;20.90;;
23288;SDS011;11813;50.834;4.280;2023-03-03T02:46:19;41.73;;;20.40;;
23288;SDS011;11813;50.834;4.280;2023-03-03T02:48:45;35.30;;;18.77;;
23288;SDS011;11813;50.834;4.280;2023-03-03T02:51:10;43.80;;;21.27;;
23288;SDS011;11813;50.834;4.280;2023-03-03T02:53:36;38.57;;;21.73;;
23288;SDS011;11813;50.834;4.280;2023-03-03T02:56:01;46.43;;;21.93;;
23288;SDS011;11813;50.834;4.280;2023-03-03T02:58:28;46.53;;;21.27;;
23288;SDS011;11813;50.834;4.280;2023-03-03T03:00:54;43.27;;;20.63;;
23288;SDS011;11813;50.834;4.280;2023-03-03T03:03:20;44.23;;;21.60;;
23288;SDS011;11813;50.834;4.280;2023-03-03T03:05:46;41.43;;;22.17;;
23288;SDS011;11813;50.834;4.280;2023-03-03T03:08:12;40.50;;;20.53;;
23288;SDS011;11813;50.834;4.280;2023-03-03T03:10:38;41.93;;;20.53;;
23288;SDS011;11813;50.834;4.280;2023-03-03T03:13:03;51.43;;;19.97;;
23288;SDS011;11813;50.834;4.280;2023-03-03T03:15:29;33.83;;;19.33;;
23288;SDS011;11813;50.834;4.280;2023-03-03T03:17:54;41.70;;;20.30;;
23288;SDS011;11813;50.834;4.280;2023-03-03T03:20:20;42.40;;;21.20;;
23288;SDS011;11813;50.834;4.280;2023-03-03T03:22:46;41.67;;;21.63;;
23288;SDS011;11813;50.834;4.280;2023-03-03T03:25:12;40.93;;;20.87;;
23288;SDS011;11813;50.834;4.280;2023-03-03T03:27:37;43.83;;;21.53;;
23288;SDS011;11813;50.834;4.280;2023-03-03T03:30:03;52.03;;;22.97;;
23288;SDS011;11813;50.834;4.280;2023-03-03T03:32:29;42.47;;;22.77;;
23288;SDS011;11813;50.834;4.280;2023-03-03T03:34:54;48.77;;;23.73;;
23288;SDS011;11813;50.834;4.280;2023-03-03T03:37:20;44.63;;;23.93;;
23288;SDS011;11813;50.834;4.280;2023-03-03T03:39:45;45.43;;;23.43;;
23288;SDS011;11813;50.834;4.280;2023-03-03T03:42:11;51.07;;;24.30;;
23288;SDS011;11813;50.834;4.280;2023-03-03T03:44:36;49.57;;;24.23;;
23288;SDS011;11813;50.834;4.280;2023-03-03T03:47:02;48.07;;;23.70;;
23288;SDS011;11813;50.834;4.280;2023-03-03T03:49:28;47.30;;;22.77;;
23288;SDS011;11813;50.834;4.280;2023-03-03T03:51:53;51.00;;;23.10;;
23288;SDS011;11813;50.834;4.280;2023-03-03T03:54:19;46.80;;;22.30;;
23288;SDS011;11813;50.834;4.280;2023-03-03T03:56:45;46.17;;;23.90;;
23288;SDS011;11813;50.834;4.280;2023-03-03T03:59:10;52.33;;;23.77;;
23288;SDS011;11813;50.834;4.280;2023-03-03T04:01:36;50.07;;;24.03;;
23288;SDS011;11813;50.834;4.280;2023-03-03T04:04:02;45.63;;;22.93;;
23288;SDS011;11813;50.834;4.280;2023-03-03T04:06:29;48.33;;;21.60;;
23288;SDS011;11813;50.834;4.280;2023-03-03T04:08:55;48.97;;;21.60;;
23288;SDS011;11813;50.834;4.280;2023-03-03T04:11:21;42.73;;;22.73;;
23288;SDS011;11813;50.834;4.280;2023-03-03T04:13:46;46.67;;;22.27;;
23288;SDS011;11813;50.834;4.280;2023-03-03T04:16:12;44.10;;;21.10;;
23288;SDS011;11813;50.834;4.280;2023-03-03T04:18:38;42.70;;;20.37;;
23288;SDS011;11813;50.834;4.280;2023-03-03T04:21:03;40.50;;;21.20;;
23288;SDS011;11813;50.834;4.280;2023-03-03T04:23:29;47.27;;;20.43;;
23288;SDS011;11813;50.834;4.280;2023-03-03T04:25:54;41.67;;;19.80;;
23288;SDS011;11813;50.834;4.280;2023-03-03T04:28:20;47.37;;;22.63;;
23288;SDS011;11813;50.834;4.280;2023-03-03T04:30:46;45.73;;;22.70;;
23288;SDS011;11813;50.834;4.280;2023-03-03T04:33:11;46.63;;;21.97;;
23288;SDS011;11813;50.834;4.280;2023-03-03T04:35:37;48.90;;;23.60;;
23288;SDS011;11813;50.834;4.280;2023-03-03T04:38:02;47.37;;;23.50;;
23288;SDS011;11813;50.834;4.280;2023-03-03T04:40:29;47.63;;;22.43;;
23288;SDS011;11813;50.834;4.280;2023-03-03T04:42:55;50.23;;;22.60;;
23288;SDS011;11813;50.834;4.280;2023-03-03T04:45:20;48.00;;;21.07;;
23288;SDS011;11813;50.834;4.280;2023-03-03T04:47:46;43.83;;;21.97;;
23288;SDS011;11813;50.834;4.280;2023-03-03T04:50:11;43.77;;;22.27;;
23288;SDS011;11813;50.834;4.280;2023-03-03T04:52:37;50.27;;;22.20;;
23288;SDS011;11813;50.834;4.280;2023-03-03T04:55:03;44.47;;;21.13;;
23288;SDS011;11813;50.834;4.280;2023-03-03T04:57:29;46.37;;;22.20;;
23288;SDS011;11813;50.834;4.280;2023-03-03T04:59:54;49.80;;;21.53;;
23288;SDS011;11813;50.834;4.280;2023-03-03T05:02:20;41.90;;;21.77;;
23288;SDS011;11813;50.834;4.280;2023-03-03T05:04:45;45.27;;;22.03;;
23288;SDS011;11813;50.834;4.280;2023-03-03T05:07:11;42.80;;;21.47;;
23288;SDS011;11813;50.834;4.280;2023-03-03T05:09:37;46.40;;;23.03;;
23288;SDS011;11813;50.834;4.280;2023-03-03T05:12:02;46.70;;;20.33;;
23288;SDS011;11813;50.834;4.280;2023-03-03T05:14:28;48.37;;;22.37;;
23288;SDS011;11813;50.834;4.280;2023-03-03T05:16:55;51.10;;;21.90;;
23288;SDS011;11813;50.834;4.280;2023-03-03T05:19:20;51.43;;;21.57;;
23288;SDS011;11813;50.834;4.280;2023-03-03T05:21:46;47.40;;;22.47;;
23288;SDS011;11813;50.834;4.280;2023-03-03T05:24:12;46.87;;;22.60;;
23288;SDS011;11813;50.834;4.280;2023-03-03T05:26:38;51.30;;;22.73;;
23288;SDS011;11813;50.834;4.280;2023-03-03T05:29:04;41.27;;;22.60;;
23288;SDS011;11813;50.834;4.280;2023-03-03T05:31:30;47.47;;;22.63;;
23288;SDS011;11813;50.834;4.280;2023-03-03T05:33:55;50.17;;;23.73;;
23288;SDS011;11813;50.834;4.280;2023-03-03T05:36:21;51.37;;;24.13;;
23288;SDS011;11813;50.834;4.280;2023-03-03T05:38:47;48.17;;;23.23;;
23288;SDS011;11813;50.834;4.280;2023-03-03T05:41:12;51.73;;;22.83;;
23288;SDS011;11813;50.834;4.280;2023-03-03T05:43:38;50.57;;;22.50;;
23288;SDS011;11813;50.834;4.280;2023-03-03T05:46:04;53.77;;;24.03;;
23288;SDS011;11813;50.834;4.280;2023-03-03T05:48:30;59.23;;;23.70;;
23288;SDS011;11813;50.834;4.280;2023-03-03T05:50:58;60.83;;;25.90;;
23288;SDS011;11813;50.834;4.280;2023-03-03T05:53:24;55.27;;;23.70;;
23288;SDS011;11813;50.834;4.280;2023-03-03T05:55:51;55.33;;;24.37;;
23288;SDS011;11813;50.834;4.280;2023-03-03T05:58:17;55.33;;;25.17;;
23288;SDS011;11813;50.834;4.280;2023-03-03T06:00:43;55.80;;;25.23;;
23288;SDS011;11813;50.834;4.280;2023-03-03T06:03:08;52.40;;;24.37;;
23288;SDS011;11813;50.834;4.280;2023-03-03T06:05:34;52.03;;;25.20;;
23288;SDS011;11813;50.834;4.280;2023-03-03T06:07:59;51.37;;;23.90;;
23288;SDS011;11813;50.834;4.280;2023-03-03T06:10:25;49.33;;;23.10;;
23288;SDS011;11813;50.834;4.280;2023-03-03T06:12:51;54.00;;;23.90;;
23288;SDS011;11813;50.834;4.280;2023-03-03T06:15:16;49.77;;;22.37;;
23288;SDS011;11813;50.834;4.280;2023-03-03T06:17:42;47.10;;;20.50;;
23288;SDS011;11813;50.834;4.280;2023-03-03T06:20:08;51.50;;;23.50;;
23288;SDS011;11813;50.834;4.280;2023-03-03T06:22:34;50.67;;;22.90;;
23288;SDS011;11813;50.834;4.280;2023-03-03T06:25:00;45.17;;;20.57;;
23288;SDS011;11813;50.834;4.280;2023-03-03T06:27:25;42.20;;;20.47;;
23288;SDS011;11813;50.834;4.280;2023-03-03T06:29:51;50.10;;;22.00;;
23288;SDS011;11813;50.834;4.280;2023-03-03T06:32:16;47.40;;;21.60;;
23288;SDS011;11813;50.834;4.280;2023-03-03T06:34:42;41.80;;;21.00;;
23288;SDS011;11813;50.834;4.280;2023-03-03T06:37:08;44.80;;;21.60;;
23288;SDS011;11813;50.834;4.280;2023-03-03T06:39:33;45.20;;;20.00;;
23288;SDS011;11813;50.834;4.280;2023-03-03T06:41:59;43.93;;;21.53;;
23288;SDS011;11813;50.834;4.280;2023-03-03T06:44:24;46.00;;;21.97;;
23288;SDS011;11813;50.834;4.280;2023-03-03T06:46:50;48.23;;;22.23;;
23288;SDS011;11813;50.834;4.280;2023-03-03T06:49:16;40.50;;;21.67;;
23288;SDS011;11813;50.834;4.280;2023-03-03T06:51:41;43.53;;;20.57;;
23288;SDS011;11813;50.834;4.280;2023-03-03T06:54:14;44.83;;;20.97;;
23288;SDS011;11813;50.834;4.280;2023-03-03T06:56:42;44.50;;;21.27;;
23288;SDS011;11813;50.834;4.280;2023-03-03T06:59:10;46.50;;;20.87;;
23288;SDS011;11813;50.834;4.280;2023-03-03T07:01:41;40.70;;;21.77;;
23288;SDS011;11813;50.834;4.280;2023-03-03T07:04:21;43.50;;;20.60;;
23288;SDS011;11813;50.834;4.280;2023-03-03T07:06:53;41.87;;;20.57;;
23288;SDS011;11813;50.834;4.280;2023-03-03T07:09:21;48.67;;;20.97;;
23288;SDS011;11813;50.834;4.280;2023-03-03T07:11:50;42.83;;;20.57;;
23288;SDS011;11813;50.834;4.280;2023-03-03T07:14:17;44.80;;;21.30;;
23288;SDS011;11813;50.834;4.280;2023-03-03T07:16:44;40.77;;;20.57;;
23288;SDS011;11813;50.834;4.280;2023-03-03T07:19:16;37.53;;;18.83;;
23288;SDS011;11813;50.834;4.280;2023-03-03T07:21:45;39.13;;;20.07;;
23288;SDS011;11813;50.834;4.280;2023-03-03T07:24:17;40.27;;;19.53;;
23288;SDS011;11813;50.834;4.280;2023-03-03T07:27:08;37.77;;;19.63;;
23288;SDS011;11813;50.834;4.280;2023-03-03T07:29:38;40.77;;;20.10;;
23288;SDS011;11813;50.834;4.280;2023-03-03T07:32:26;40.83;;;19.57;;
23288;SDS011;11813;50.834;4.280;2023-03-03T07:35:33;36.87;;;18.00;;
23288;SDS011;11813;50.834;4.280;2023-03-03T07:37:59;36.77;;;18.13;;
23288;SDS011;11813;50.834;4.280;2023-03-03T07:43:22;43.27;;;20.63;;
23288;SDS011;11813;50.834;4.280;2023-03-03T07:48:35;44.17;;;19.73;;
23288;SDS011;11813;50.834;4.280;2023-03-03T07:51:13;38.27;;;16.37;;
23288;SDS011;11813;50.834;4.280;2023-03-03T07:53:40;41.63;;;18.80;;
23288;SDS011;11813;50.834;4.280;2023-03-03T07:59:17;44.23;;;18.17;;
23288;SDS011;11813;50.834;4.280;2023-03-03T08:01:54;39.07;;;18.37;;
23288;SDS011;11813;50.834;4.280;2023-03-03T08:04:23;42.37;;;18.70;;
23288;SDS011;11813;50.834;4.280;2023-03-03T08:06:57;46.77;;;18.43;;
23288;SDS011;11813;50.834;4.280;2023-03-03T08:09:26;44.27;;;19.87;;
23288;SDS011;11813;50.834;4.280;2023-03-03T08:14:35;41.10;;;18.23;;
23288;SDS011;11813;50.834;4.280;2023-03-03T08:17:06;42.37;;;19.83;;
23288;SDS011;11813;50.834;4.280;2023-03-03T08:19:38;43.23;;;18.93;;
23288;SDS011;11813;50.834;4.280;2023-03-03T08:22:14;45.77;;;18.97;;
23288;SDS011;11813;50.834;4.280;2023-03-03T08:24:42;43.93;;;18.37;;
23288;SDS011;11813;50.834;4.280;2023-03-03T08:27:07;41.73;;;19.30;;
23288;SDS011;11813;50.834;4.280;2023-03-03T08:29:33;41.63;;;18.57;;
23288;SDS011;11813;50.834;4.280;2023-03-03T08:31:58;38.40;;;18.97;;
23288;SDS011;11813;50.834;4.280;2023-03-03T08:34:24;40.30;;;19.03;;
23288;SDS011;11813;50.834;4.280;2023-03-03T08:36:50;36.70;;;18.23;;
23288;SDS011;11813;50.834;4.280;2023-03-03T08:39:15;41.27;;;17.73;;
23288;SDS011;11813;50.834;4.280;2023-03-03T08:41:41;44.37;;;19.07;;
23288;SDS011;11813;50.834;4.280;2023-03-03T08:44:08;43.13;;;19.33;;
23288;SDS011;11813;50.834;4.280;2023-03-03T08:46:34;43.87;;;20.00;;
23288;SDS011;11813;50.834;4.280;2023-03-03T08:49:00;38.87;;;19.30;;
23288;SDS011;11813;50.834;4.280;2023-03-03T08:51:26;43.23;;;20.03;;
23288;SDS011;11813;50.834;4.280;2023-03-03T08:53:51;38.50;;;17.87;;
23288;SDS011;11813;50.834;4.280;2023-03-03T08:56:17;38.80;;;18.73;;
23288;SDS011;11813;50.834;4.280;2023-03-03T08:58:42;36.43;;;18.63;;
23288;SDS011;11813;50.834;4.280;2023-03-03T09:01:11;43.37;;;19.73;;
23288;SDS011;11813;50.834;4.280;2023-03-03T09:03:39;37.57;;;19.10;;
23288;SDS011;11813;50.834;4.280;2023-03-03T09:06:04;39.97;;;18.47;;
23288;SDS011;11813;50.834;4.280;2023-03-03T09:08:30;44.40;;;19.80;;
23288;SDS011;11813;50.834;4.280;2023-03-03T09:10:56;39.47;;;18.77;;
23288;SDS011;11813;50.834;4.280;2023-03-03T09:13:22;41.27;;;19.40;;
23288;SDS011;11813;50.834;4.280;2023-03-03T09:15:47;37.43;;;18.83;;
23288;SDS011;11813;50.834;4.280;2023-03-03T09:20:44;38.67;;;18.77;;
23288;SDS011;11813;50.834;4.280;2023-03-03T09:28:50;36.10;;;16.93;;
23288;SDS011;11813;50.834;4.280;2023-03-03T09:31:27;36.97;;;15.97;;
23288;SDS011;11813;50.834;4.280;2023-03-03T09:34:11;33.43;;;14.63;;
23288;SDS011;11813;50.834;4.280;2023-03-03T09:36:39;32.73;;;15.37;;
23288;SDS011;11813;50.834;4.280;2023-03-03T09:39:12;35.67;;;15.77;;
23288;SDS011;11813;50.834;4.280;2023-03-03T09:41:48;30.63;;;15.50;;
23288;SDS011;11813;50.834;4.280;2023-03-03T09:44:43;34.27;;;15.60;;
23288;SDS011;11813;50.834;4.280;2023-03-03T09:52:33;35.97;;;16.00;;
23288;SDS011;11813;50.834;4.280;2023-03-03T10:00:35;40.47;;;18.03;;
23288;SDS011;11813;50.834;4.280;2023-03-03T10:06:21;37.07;;;15.53;;
23288;SDS011;11813;50.834;4.280;2023-03-03T10:09:08;34.37;;;14.80;;
23288;SDS011;11813;50.834;4.280;2023-03-03T10:22:51;35.23;;;15.90;;
23288;SDS011;11813;50.834;4.280;2023-03-03T10:27:53;40.03;;;17.43;;
23288;SDS011;11813;50.834;4.280;2023-03-03T10:36:24;35.03;;;15.13;;
23288;SDS011;11813;50.834;4.280;2023-03-03T10:55:46;40.27;;;16.03;;
23288;SDS011;11813;50.834;4.280;2023-03-03T11:06:00;31.47;;;15.23;;
23288;SDS011;11813;50.834;4.280;2023-03-03T11:08:48;33.03;;;16.27;;
23288;SDS011;11813;50.834;4.280;2023-03-03T11:11:21;36.30;;;16.70;;
23288;SDS011;11813;50.834;4.280;2023-03-03T11:16:49;37.33;;;14.93;;
23288;SDS011;11813;50.834;4.280;2023-03-03T11:19:38;37.77;;;15.60;;
23288;SDS011;11813;50.834;4.280;2023-03-03T11:32:53;32.77;;;15.23;;
23288;SDS011;11813;50.834;4.280;2023-03-03T11:43:39;30.40;;;13.50;;
23288;SDS011;11813;50.834;4.280;2023-03-03T11:46:21;28.67;;;13.37;;
23288;SDS011;11813;50.834;4.280;2023-03-03T12:11:15;30.73;;;13.10;;
23288;SDS011;11813;50.834;4.280;2023-03-03T12:13:52;29.87;;;13.40;;
23288;SDS011;11813;50.834;4.280;2023-03-03T12:35:49;26.50;;;13.53;;
23288;SDS011;11813;50.834;4.280;2023-03-03T12:41:11;30.37;;;14.10;;
23288;SDS011;11813;50.834;4.280;2023-03-03T12:43:43;28.33;;;13.20;;
23288;SDS011;11813;50.834;4.280;2023-03-03T12:48:53;22.17;;;12.27;;
23288;SDS011;11813;50.834;4.280;2023-03-03T12:56:44;23.83;;;12.13;;
23288;SDS011;11813;50.834;4.280;2023-03-03T12:59:36;20.53;;;11.70;;
23288;SDS011;11813;50.834;4.280;2023-03-03T13:02:24;22.40;;;11.97;;
23288;SDS011;11813;50.834;4.280;2023-03-03T13:10:40;21.47;;;11.63;;
23288;SDS011;11813;50.834;4.280;2023-03-03T13:16:03;25.63;;;12.63;;
23288;SDS011;11813;50.834;4.280;2023-03-03T13:18:52;21.83;;;11.10;;
23288;SDS011;11813;50.834;4.280;2023-03-03T13:21:20;23.67;;;13.67;;
23288;SDS011;11813;50.834;4.280;2023-03-03T13:24:11;21.87;;;9.67;;
23288;SDS011;11813;50.834;4.280;2023-03-03T13:32:23;22.27;;;10.10;;
23288;SDS011;11813;50.834;4.280;2023-03-03T13:35:30;24.63;;;11.23;;
23288;SDS011;11813;50.834;4.280;2023-03-03T13:38:03;20.50;;;11.30;;
23288;SDS011;11813;50.834;4.280;2023-03-03T13:51:01;21.00;;;11.60;;
23288;SDS011;11813;50.834;4.280;2023-03-03T13:56:02;26.90;;;12.43;;
23288;SDS011;11813;50.834;4.280;2023-03-03T14:01:31;23.03;;;13.63;;
23288;SDS011;11813;50.834;4.280;2023-03-03T14:12:28;19.03;;;11.20;;
23288;SDS011;11813;50.834;4.280;2023-03-03T14:17:33;21.43;;;12.73;;
23288;SDS011;11813;50.834;4.280;2023-03-03T14:20:26;20.70;;;12.07;;
23288;SDS011;11813;50.834;4.280;2023-03-03T14:23:01;18.33;;;10.97;;
23288;SDS011;11813;50.834;4.280;2023-03-03T14:25:50;22.70;;;11.10;;
23288;SDS011;11813;50.834;4.280;2023-03-03T14:28:26;19.37;;;10.93;;
23288;SDS011;11813;50.834;4.280;2023-03-03T14:30:57;26.53;;;11.50;;
23288;SDS011;11813;50.834;4.280;2023-03-03T14:33:33;18.37;;;9.93;;
23288;SDS011;11813;50.834;4.280;2023-03-03T14:36:00;24.73;;;10.73;;
23288;SDS011;11813;50.834;4.280;2023-03-03T14:44:00;17.77;;;10.60;;
23288;SDS011;11813;50.834;4.280;2023-03-03T14:46:57;16.77;;;10.63;;
23288;SDS011;11813;50.834;4.280;2023-03-03T14:49:28;21.77;;;11.90;;
23288;SDS011;11813;50.834;4.280;2023-03-03T14:52:04;20.37;;;11.10;;
23288;SDS011;11813;50.834;4.280;2023-03-03T14:54:36;16.33;;;10.27;;
23288;SDS011;11813;50.834;4.280;2023-03-03T14:59:55;14.97;;;9.47;;
23288;SDS011;11813;50.834;4.280;2023-03-03T15:02:37;18.77;;;9.97;;
23288;SDS011;11813;50.834;4.280;2023-03-03T15:05:27;15.47;;;9.30;;
23288;SDS011;11813;50.834;4.280;2023-03-03T15:07:55;16.83;;;9.27;;
23288;SDS011;11813;50.834;4.280;2023-03-03T15:10:26;14.97;;;9.87;;
23288;SDS011;11813;50.834;4.280;2023-03-03T15:13:24;18.33;;;9.00;;
23288;SDS011;11813;50.834;4.280;2023-03-03T15:18:23;17.30;;;9.33;;
23288;SDS011;11813;50.834;4.280;2023-03-03T15:21:03;20.07;;;9.67;;
23288;SDS011;11813;50.834;4.280;2023-03-03T15:26:43;14.97;;;8.67;;
23288;SDS011;11813;50.834;4.280;2023-03-03T15:34:56;14.17;;;8.83;;
23288;SDS011;11813;50.834;4.280;2023-03-03T15:40:28;16.80;;;8.67;;
23288;SDS011;11813;50.834;4.280;2023-03-03T15:43:18;13.13;;;8.53;;
23288;SDS011;11813;50.834;4.280;2023-03-03T15:46:00;15.40;;;8.80;;
23288;SDS011;11813;50.834;4.280;2023-03-03T15:48:42;13.77;;;8.47;;
23288;SDS011;11813;50.834;4.280;2023-03-03T15:51:20;12.70;;;8.57;;
23288;SDS011;11813;50.834;4.280;2023-03-03T15:54:21;13.07;;;9.40;;
23288;SDS011;11813;50.834;4.280;2023-03-03T15:56:55;17.20;;;8.50;;
23288;SDS011;11813;50.834;4.280;2023-03-03T16:04:58;14.57;;;8.67;;
23288;SDS011;11813;50.834;4.280;2023-03-03T16:10:33;13.50;;;8.57;;
23288;SDS011;11813;50.834;4.280;2023-03-03T16:19:05;13.47;;;9.10;;
23288;SDS011;11813;50.834;4.280;2023-03-03T16:24:51;15.20;;;8.40;;
23288;SDS011;11813;50.834;4.280;2023-03-03T16:33:05;12.10;;;7.33;;
23288;SDS011;11813;50.834;4.280;2023-03-03T16:35:54;12.50;;;7.77;;
23288;SDS011;11813;50.834;4.280;2023-03-03T16:38:25;12.53;;;7.07;;
23288;SDS011;11813;50.834;4.280;2023-03-03T16:41:28;9.97;;;6.27;;
23288;SDS011;11813;50.834;4.280;2023-03-03T16:44:03;9.73;;;6.07;;
23288;SDS011;11813;50.834;4.280;2023-03-03T16:46:40;9.90;;;6.33;;
23288;SDS011;11813;50.834;4.280;2023-03-03T16:49:26;11.07;;;7.40;;
23288;SDS011;11813;50.834;4.280;2023-03-03T16:54:32;14.10;;;7.47;;
23288;SDS011;11813;50.834;4.280;2023-03-03T17:03:14;14.40;;;6.97;;
23288;SDS011;11813;50.834;4.280;2023-03-03T17:05:53;9.30;;;5.97;;
23288;SDS011;11813;50.834;4.280;2023-03-03T17:16:29;10.63;;;6.20;;
23288;SDS011;11813;50.834;4.280;2023-03-03T17:27:53;12.50;;;7.27;;
23288;SDS011;11813;50.834;4.280;2023-03-03T17:33:27;12.20;;;7.10;;
23288;SDS011;11813;50.834;4.280;2023-03-03T17:41:16;12.33;;;6.97;;
23288;SDS011;11813;50.834;4.280;2023-03-03T17:46:33;10.73;;;6.40;;
23288;SDS011;11813;50.834;4.280;2023-03-03T18:02:53;9.53;;;6.60;;
23288;SDS011;11813;50.834;4.280;2023-03-03T18:06:09;14.30;;;7.63;;
23288;SDS011;11813;50.834;4.280;2023-03-03T18:11:33;15.17;;;7.43;;
23288;SDS011;11813;50.834;4.280;2023-03-03T18:22:46;11.23;;;6.47;;
23288;SDS011;11813;50.834;4.280;2023-03-03T18:25:15;11.33;;;7.97;;
23288;SDS011;11813;50.834;4.280;2023-03-03T18:27:44;15.03;;;8.10;;
23288;SDS011;11813;50.834;4.280;2023-03-03T18:30:18;13.87;;;7.90;;
23288;SDS011;11813;50.834;4.280;2023-03-03T18:37:51;77.97;;;30.80;;
23288;SDS011;11813;50.834;4.280;2023-03-03T18:40:20;66.70;;;26.73;;
23288;SDS011;11813;50.834;4.280;2023-03-03T18:42:51;67.73;;;26.67;;
23288;SDS011;11813;50.834;4.280;2023-03-03T18:50:37;43.30;;;22.13;;
23288;SDS011;11813;50.834;4.280;2023-03-03T18:55:48;20.80;;;10.90;;
23288;SDS011;11813;50.834;4.280;2023-03-03T19:00:46;20.40;;;11.40;;
23288;SDS011;11813;50.834;4.280;2023-03-03T19:05:49;16.40;;;9.10;;
23288;SDS011;11813;50.834;4.280;2023-03-03T19:14:47;15.77;;;9.23;;
23288;SDS011;11813;50.834;4.280;2023-03-03T19:16:55;16.47;;;10.20;;
23288;SDS011;11813;50.834;4.280;2023-03-03T19:20:15;17.90;;;9.93;;
23288;SDS011;11813;50.834;4.280;2023-03-03T19:22:52;13.90;;;8.83;;
23288;SDS011;11813;50.834;4.280;2023-03-03T19:25:27;15.67;;;9.80;;
23288;SDS011;11813;50.834;4.280;2023-03-03T19:36:08;16.83;;;9.80;;
23288;SDS011;11813;50.834;4.280;2023-03-03T19:38:49;18.00;;;9.87;;
23288;SDS011;11813;50.834;4.280;2023-03-03T19:46:36;17.03;;;10.70;;
23288;SDS011;11813;50.834;4.280;2023-03-03T19:52:17;13.77;;;9.13;;
23288;SDS011;11813;50.834;4.280;2023-03-03T19:57:53;15.40;;;10.40;;
23288;SDS011;11813;50.834;4.280;2023-03-03T20:00:42;18.17;;;10.53;;
23288;SDS011;11813;50.834;4.280;2023-03-03T20:14:37;15.17;;;10.17;;
23288;SDS011;11813;50.834;4.280;2023-03-03T20:20:14;14.03;;;10.00;;
23288;SDS011;11813;50.834;4.280;2023-03-03T20:23:00;12.97;;;9.23;;
23288;SDS011;11813;50.834;4.280;2023-03-03T20:25:36;15.87;;;10.07;;
23288;SDS011;11813;50.834;4.280;2023-03-03T20:33:51;19.00;;;10.77;;
23288;SDS011;11813;50.834;4.280;2023-03-03T20:39:10;13.90;;;10.17;;
23288;SDS011;11813;50.834;4.280;2023-03-03T20:50:24;15.83;;;10.93;;
23288;SDS011;11813;50.834;4.280;2023-03-03T20:55:58;16.87;;;11.43;;
23288;SDS011;11813;50.834;4.280;2023-03-03T20:58:45;16.50;;;11.17;;
23288;SDS011;11813;50.834;4.280;2023-03-03T21:01:13;20.87;;;11.30;;
23288;SDS011;11813;50.834;4.280;2023-03-03T21:03:43;18.87;;;11.60;;
23288;SDS011;11813;50.834;4.280;2023-03-03T21:06:10;18.13;;;10.93;;
23288;SDS011;11813;50.834;4.280;2023-03-03T21:11:09;17.67;;;12.13;;
23288;SDS011;11813;50.834;4.280;2023-03-03T21:13:40;20.83;;;12.40;;
23288;SDS011;11813;50.834;4.280;2023-03-03T21:16:28;22.70;;;12.13;;
23288;SDS011;11813;50.834;4.280;2023-03-03T21:19:02;21.97;;;12.33;;
23288;SDS011;11813;50.834;4.280;2023-03-03T21:21:43;18.57;;;13.03;;
23288;SDS011;11813;50.834;4.280;2023-03-03T21:24:12;18.83;;;12.50;;
23288;SDS011;11813;50.834;4.280;2023-03-03T21:26:49;17.37;;;12.07;;
23288;SDS011;11813;50.834;4.280;2023-03-03T21:31:57;19.73;;;13.20;;